Time;durP1;ratioP1;P1;durP2;ratioP2;P2;SDS_P1;SDS_P2;PMS_P1;PMS_P2;Temp;Humidity;BMP_temperature;BMP_pressure;BME280_temperature;BME280_humidity;BME280_pressure;Samples;Min_cycle;Max_cycle;Signal;HPM_P1;HPM_P2
2022/03/15 00:00:27;;;;;;;13.57;8.07;;;4.80;99.90;;;;;;4964601;28;20041;-63
2022/03/15 00:02:56;;;;;;;12.30;8.85;;;4.80;99.90;;;;;;4964890;28;20248;-63
2022/03/15 00:05:24;;;;;;;10.98;7.40;;;4.80;99.90;;;;;;4966332;28;20385;-62
2022/03/15 00:07:52;;;;;;;13.90;9.05;;;4.80;99.90;;;;;;4965973;28;20916;-63
2022/03/15 00:10:19;;;;;;;17.45;8.13;;;4.80;99.90;;;;;;4964046;28;20046;-63
2022/03/15 00:12:47;;;;;;;13.10;8.10;;;4.80;99.90;;;;;;4965143;28;20038;-63
2022/03/15 00:15:15;;;;;;;22.02;9.75;;;4.80;99.90;;;;;;4964941;28;20295;-63
2022/03/15 00:17:43;;;;;;;18.10;9.05;;;4.80;99.90;;;;;;4964373;28;20041;-63
2022/03/15 00:20:14;;;;;;;13.93;9.65;;;4.80;99.90;;;;;;4963863;28;20038;-62
2022/03/15 00:22:42;;;;;;;16.30;9.25;;;4.80;99.90;;;;;;4965270;28;20048;-63
2022/03/15 00:25:16;;;;;;;16.60;9.60;;;4.70;99.90;;;;;;4963931;28;20041;-62
2022/03/15 00:27:45;;;;;;;16.30;10.07;;;4.70;99.90;;;;;;4964871;28;20198;-63
2022/03/15 00:30:14;;;;;;;12.80;8.85;;;4.70;99.90;;;;;;4964253;28;20069;-62
2022/03/15 00:32:42;;;;;;;12.27;8.75;;;4.70;99.90;;;;;;4965023;28;20045;-62
2022/03/15 00:35:16;;;;;;;14.05;8.43;;;4.70;99.90;;;;;;4963060;28;20416;-62
2022/03/15 00:37:47;;;;;;;12.93;8.93;;;4.70;99.90;;;;;;4963014;28;20365;-62
2022/03/15 00:40:15;;;;;;;12.65;8.43;;;4.70;99.90;;;;;;4961973;28;20038;-63
2022/03/15 00:42:52;;;;;;;12.45;8.25;;;4.70;99.90;;;;;;4963932;28;20570;-63
2022/03/15 00:45:25;;;;;;;14.18;8.27;;;4.80;99.90;;;;;;4963294;28;20595;-62
2022/03/15 00:47:52;;;;;;;15.93;9.05;;;4.80;99.90;;;;;;4961264;28;20072;-62
2022/03/15 00:50:21;;;;;;;13.60;8.00;;;4.80;99.90;;;;;;4962784;28;20037;-62
2022/03/15 00:52:49;;;;;;;14.23;9.30;;;4.80;99.90;;;;;;4964152;28;20839;-62
2022/03/15 00:55:16;;;;;;;13.70;8.65;;;4.80;99.90;;;;;;4960609;28;20887;-62
2022/03/15 00:57:44;;;;;;;12.25;8.30;;;4.80;99.90;;;;;;4964203;28;20337;-62
2022/03/15 01:00:12;;;;;;;12.10;8.27;;;4.80;99.90;;;;;;4964019;28;20035;-62
2022/03/15 01:02:40;;;;;;;16.33;8.68;;;4.90;99.90;;;;;;4964096;28;20042;-62
2022/03/15 01:05:08;;;;;;;13.02;8.52;;;4.90;99.90;;;;;;4963514;28;20057;-62
2022/03/15 01:07:38;;;;;;;11.32;7.35;;;5.00;99.90;;;;;;4962904;28;20539;-62
2022/03/15 01:10:07;;;;;;;13.20;7.90;;;5.00;99.90;;;;;;4962235;28;20049;-62
2022/03/15 01:12:34;;;;;;;12.60;8.23;;;5.00;99.90;;;;;;4962883;28;20041;-64
2022/03/15 01:15:04;;;;;;;12.38;7.35;;;5.00;99.90;;;;;;4961880;28;20054;-63
2022/03/15 01:17:31;;;;;;;11.85;7.30;;;5.10;99.90;;;;;;4964200;28;20444;-63
2022/03/15 01:19:58;;;;;;;;;;;5.10;99.90;;;;;;4946154;28;20069;-63
2022/03/15 01:22:25;;;;;;;15.38;8.05;;;5.10;99.90;;;;;;4964968;28;20478;-63
2022/03/15 01:24:53;;;;;;;14.35;7.82;;;5.10;99.90;;;;;;4961910;28;20113;-63
2022/03/15 01:27:20;;;;;;;;;;;5.20;99.90;;;;;;4962074;28;20054;-63
2022/03/15 01:29:47;;;;;;;14.15;7.55;;;5.20;99.90;;;;;;4964910;28;19937;-62
2022/03/15 01:32:16;;;;;;;11.20;7.43;;;5.10;99.90;;;;;;4961936;28;20058;-62
2022/03/15 01:34:46;;;;;;;11.15;8.02;;;5.20;99.90;;;;;;4962194;28;20224;-62
2022/03/15 01:37:13;;;;;;;;;;;5.20;99.90;;;;;;4964867;28;20435;-62
2022/03/15 01:39:40;;;;;;;10.90;7.00;;;5.20;99.90;;;;;;4960762;28;19926;-63
2022/03/15 01:42:07;;;;;;;;;;;5.20;99.90;;;;;;4963163;28;20819;-63
2022/03/15 01:44:35;;;;;;;11.57;7.10;;;5.20;99.90;;;;;;4964076;28;19925;-63
2022/03/15 01:47:03;;;;;;;11.00;7.82;;;5.20;99.90;;;;;;4964020;28;20753;-63
2022/03/15 01:49:30;;;;;;;14.20;8.40;;;5.20;99.90;;;;;;4964286;28;20120;-62
2022/03/15 01:51:57;;;;;;;12.40;7.93;;;5.20;99.90;;;;;;4963884;28;20857;-62
2022/03/15 01:54:24;;;;;;;;;;;5.20;99.90;;;;;;4960483;28;20053;-62
2022/03/15 01:56:51;;;;;;;12.07;7.72;;;5.20;99.90;;;;;;4962746;28;20238;-62
2022/03/15 01:59:18;;;;;;;;;;;5.20;99.90;;;;;;4963814;28;20065;-62
2022/03/15 02:01:46;;;;;;;12.45;8.60;;;5.20;99.90;;;;;;4964093;28;20442;-62
2022/03/15 02:04:15;;;;;;;14.38;8.45;;;5.20;99.90;;;;;;4966732;28;20045;-63
2022/03/15 02:06:42;;;;;;;13.57;8.52;;;5.20;99.90;;;;;;4967511;28;20212;-62
2022/03/15 02:09:14;;;;;;;13.15;7.78;;;5.20;99.90;;;;;;4966174;28;20392;-65
2022/03/15 02:11:45;;;;;;;11.65;7.45;;;5.20;99.90;;;;;;4965376;28;20812;-62
2022/03/15 02:14:12;;;;;;;8.65;6.68;;;5.20;99.90;;;;;;4965021;28;20041;-62
2022/03/15 02:16:39;;;;;;;;;;;5.20;99.90;;;;;;4968009;28;20046;-63
2022/03/15 02:19:06;;;;;;;12.90;8.05;;;5.20;99.90;;;;;;4968731;28;20458;-62
2022/03/15 02:21:36;;;;;;;15.20;8.45;;;5.20;99.90;;;;;;4967965;28;20053;-63
2022/03/15 02:24:03;;;;;;;14.65;8.27;;;5.20;99.90;;;;;;4966519;28;20261;-63
2022/03/15 02:26:30;;;;;;;12.40;7.60;;;5.20;99.90;;;;;;4968064;28;20049;-62
2022/03/15 02:28:57;;;;;;;14.50;8.15;;;5.20;99.90;;;;;;4964682;28;20403;-63
2022/03/15 02:31:24;;;;;;;;;;;5.20;99.90;;;;;;4967432;28;20046;-63
2022/03/15 02:33:51;;;;;;;12.10;8.10;;;5.20;99.90;;;;;;4964449;28;19928;-63
2022/03/15 02:36:19;;;;;;;12.57;7.80;;;5.20;99.90;;;;;;4967232;28;20751;-63
2022/03/15 02:38:47;;;;;;;15.43;8.82;;;5.30;99.90;;;;;;4965070;28;20124;-63
2022/03/15 02:41:14;;;;;;;13.07;8.38;;;5.30;99.90;;;;;;4967384;28;20050;-63
2022/03/15 02:43:43;;;;;;;14.32;8.35;;;5.30;99.90;;;;;;4966934;28;20042;-61
2022/03/15 02:46:11;;;;;;;17.80;8.82;;;5.30;99.90;;;;;;4965965;28;20042;-62
2022/03/15 02:48:39;;;;;;;9.98;7.55;;;5.30;99.90;;;;;;4965722;28;20744;-61
2022/03/15 02:51:09;;;;;;;9.60;7.28;;;5.30;99.90;;;;;;4965957;28;20061;-62
2022/03/15 02:53:37;;;;;;;11.73;6.95;;;5.40;99.90;;;;;;4944405;28;20043;-62
2022/03/15 02:56:11;;;;;;;13.18;9.05;;;5.40;99.90;;;;;;4951477;28;20208;-61
2022/03/15 02:58:41;;;;;;;13.43;9.18;;;5.40;99.90;;;;;;4966753;28;21985;-62
2022/03/15 03:01:09;;;;;;;12.45;8.57;;;5.40;99.90;;;;;;4967088;28;20038;-62
2022/03/15 03:03:37;;;;;;;13.80;7.20;;;5.40;99.90;;;;;;4967059;28;20046;-62
2022/03/15 03:06:04;;;;;;;11.52;6.80;;;5.40;99.90;;;;;;4966872;28;20053;-62
2022/03/15 03:08:32;;;;;;;11.07;7.75;;;5.50;99.90;;;;;;4964992;28;20046;-62
2022/03/15 03:11:01;;;;;;;11.75;8.50;;;5.50;99.90;;;;;;4966376;28;20096;-62
2022/03/15 03:13:30;;;;;;;12.00;8.15;;;5.50;99.90;;;;;;4965990;28;20049;-62
2022/03/15 03:16:00;;;;;;;13.13;7.97;;;5.50;99.90;;;;;;4964596;28;20052;-61
2022/03/15 03:18:29;;;;;;;14.65;8.25;;;5.60;99.90;;;;;;4966996;28;20579;-61
2022/03/15 03:20:57;;;;;;;10.23;6.65;;;5.60;99.90;;;;;;4966505;28;20034;-62
2022/03/15 03:23:24;;;;;;;12.07;8.32;;;5.60;99.90;;;;;;4964454;28;20407;-61
2022/03/15 03:25:51;;;;;;;;;;;5.60;99.90;;;;;;4966865;28;20053;-62
2022/03/15 03:28:18;;;;;;;14.80;8.63;;;5.60;99.90;;;;;;4964647;28;19921;-62
2022/03/15 03:30:46;;;;;;;12.25;6.82;;;5.60;99.90;;;;;;4966015;28;20338;-62
2022/03/15 03:33:15;;;;;;;14.75;7.68;;;5.70;99.90;;;;;;4965449;28;20061;-62
2022/03/15 03:35:43;;;;;;;12.23;8.00;;;5.70;99.90;;;;;;4954882;28;20132;-62
2022/03/15 03:38:11;;;;;;;12.60;7.93;;;5.70;99.90;;;;;;4962988;28;20496;-62
2022/03/15 03:40:39;;;;;;;11.88;7.68;;;5.70;99.90;;;;;;4964321;28;20454;-62
2022/03/15 03:43:06;;;;;;;15.00;7.13;;;5.70;99.90;;;;;;4965463;28;20109;-62
2022/03/15 03:45:34;;;;;;;12.68;7.45;;;5.70;99.90;;;;;;4964623;28;20042;-62
2022/03/15 03:48:02;;;;;;;9.82;6.78;;;5.70;99.90;;;;;;4965334;28;20847;-62
2022/03/15 03:50:29;;;;;;;9.98;6.60;;;5.70;99.90;;;;;;4965066;28;20054;-62
2022/03/15 03:52:56;;;;;;;;;;;5.70;99.90;;;;;;4964705;28;20465;-62
2022/03/15 03:55:23;;;;;;;11.45;5.82;;;5.70;99.90;;;;;;4962340;28;20696;-62
2022/03/15 03:57:50;;;;;;;8.70;5.85;;;5.80;99.90;;;;;;4964840;28;20932;-62
2022/03/15 04:00:17;;;;;;;;;;;5.80;99.90;;;;;;4963526;28;20045;-61
2022/03/15 04:02:45;;;;;;;11.05;6.82;;;5.80;99.90;;;;;;4963864;28;19921;-62
2022/03/15 04:05:13;;;;;;;9.88;6.40;;;5.80;99.90;;;;;;4964754;28;20078;-62
2022/03/15 04:07:41;;;;;;;9.75;6.70;;;5.80;99.90;;;;;;4963340;28;20852;-62
2022/03/15 04:10:09;;;;;;;9.13;5.82;;;5.80;99.90;;;;;;4965056;28;20050;-62
2022/03/15 04:12:36;;;;;;;10.13;6.10;;;5.80;99.90;;;;;;4965547;28;20716;-62
2022/03/15 04:15:04;;;;;;;8.88;6.05;;;5.80;99.90;;;;;;4964091;28;20050;-62
2022/03/15 04:17:32;;;;;;;9.00;5.80;;;5.90;99.90;;;;;;4965195;28;20034;-62
2022/03/15 04:19:58;;;;;;;8.00;5.32;;;5.90;99.90;;;;;;4965366;28;20103;-63
2022/03/15 04:22:25;;;;;;;;;;;5.90;99.90;;;;;;4963986;28;20873;-63
2022/03/15 04:24:52;;;;;;;9.77;6.00;;;6.00;99.90;;;;;;4964007;28;20161;-62
2022/03/15 04:27:19;;;;;;;;;;;6.10;99.90;;;;;;4965345;28;20050;-63
2022/03/15 04:29:46;;;;;;;8.57;6.30;;;6.10;99.90;;;;;;4963633;28;20109;-62
2022/03/15 04:32:12;;;;;;;;;;;6.10;99.90;;;;;;4965659;28;20045;-63
2022/03/15 04:34:40;;;;;;;10.40;6.78;;;6.10;99.90;;;;;;4962946;28;20451;-63
2022/03/15 04:37:06;;;;;;;13.27;7.68;;;6.10;99.90;;;;;;4964740;28;20042;-62
2022/03/15 04:39:33;;;;;;;;;;;6.10;99.90;;;;;;4964547;28;20041;-62
2022/03/15 04:42:02;;;;;;;16.83;8.02;;;6.10;99.90;;;;;;4964765;28;19928;-63
2022/03/15 04:44:28;;;;;;;14.27;7.78;;;6.00;99.90;;;;;;4963639;28;20037;-63
2022/03/15 04:46:55;;;;;;;;;;;6.10;99.90;;;;;;4964185;28;20038;-63
2022/03/15 04:49:22;;;;;;;14.82;8.07;;;6.10;99.90;;;;;;4965516;28;19934;-63
2022/03/15 04:51:50;;;;;;;11.48;6.97;;;6.10;99.90;;;;;;4964595;28;20244;-63
2022/03/15 04:54:17;;;;;;;19.25;8.43;;;6.10;99.90;;;;;;4965981;28;20052;-63
2022/03/15 04:56:44;;;;;;;;;;;6.10;99.90;;;;;;4962542;28;20042;-61
2022/03/15 04:59:10;;;;;;;21.38;11.13;;;6.10;99.90;;;;;;4964502;28;20016;-61
2022/03/15 05:01:37;;;;;;;26.30;11.43;;;6.20;99.90;;;;;;4964412;28;20045;-62
2022/03/15 05:04:04;;;;;;;23.38;10.02;;;6.20;99.90;;;;;;4964286;28;20034;-61
2022/03/15 05:06:31;;;;;;;;;;;6.20;99.90;;;;;;4965799;28;20053;-61
2022/03/15 05:08:58;;;;;;;24.73;10.57;;;6.30;99.90;;;;;;4965619;28;19925;-61
2022/03/15 05:11:26;;;;;;;;;;;6.30;99.90;;;;;;4961873;28;20575;-62
2022/03/15 05:13:53;;;;;;;17.75;9.15;;;6.30;99.90;;;;;;4962447;28;20086;-62
2022/03/15 05:16:21;;;;;;;;;;;6.30;99.90;;;;;;4963468;28;20041;-62
2022/03/15 05:18:53;;;;;;;19.17;9.02;;;6.30;99.90;;;;;;4964505;28;20211;-62
2022/03/15 05:21:22;;;;;;;21.25;9.93;;;6.30;99.90;;;;;;4964806;28;20046;-62
2022/03/15 05:23:49;;;;;;;28.50;10.05;;;6.30;99.90;;;;;;4963943;28;20049;-62
2022/03/15 05:26:17;;;;;;;13.65;8.13;;;6.30;99.90;;;;;;4965083;28;20594;-62
2022/03/15 05:28:45;;;;;;;17.00;8.52;;;6.30;99.90;;;;;;4964259;28;20058;-62
2022/03/15 05:31:19;;;;;;;16.45;9.05;;;6.30;99.90;;;;;;4963559;28;20054;-62
2022/03/15 05:33:48;;;;;;;17.00;8.68;;;6.20;99.90;;;;;;4962287;28;20030;-62
2022/03/15 05:36:15;;;;;;;12.88;6.97;;;6.20;99.90;;;;;;4964342;28;20053;-62
2022/03/15 05:38:42;;;;;;;10.90;7.22;;;6.30;99.90;;;;;;4969119;28;20354;-62
2022/03/15 05:41:09;;;;;;;10.98;7.15;;;6.30;99.90;;;;;;4969804;28;20042;-61
2022/03/15 05:43:52;;;;;;;12.93;7.45;;;6.30;99.90;;;;;;4967523;28;20110;-62
2022/03/15 05:46:19;;;;;;;16.08;8.40;;;6.30;99.90;;;;;;4965750;28;20046;-62
2022/03/15 05:48:47;;;;;;;12.23;7.25;;;6.30;99.90;;;;;;4966342;28;20054;-62
2022/03/15 05:51:14;;;;;;;11.65;7.75;;;6.20;99.90;;;;;;4967050;28;20152;-61
2022/03/15 05:53:40;;;;;;;11.48;7.15;;;6.30;99.90;;;;;;4967570;28;20057;-62
2022/03/15 05:56:08;;;;;;;10.05;6.45;;;6.20;99.90;;;;;;4967680;28;20152;-62
2022/03/15 05:58:36;;;;;;;13.77;7.45;;;6.30;99.90;;;;;;4967803;28;20861;-62
2022/03/15 06:01:03;;;;;;;13.38;8.20;;;6.20;99.90;;;;;;4967655;28;20042;-61
2022/03/15 06:03:30;;;;;;;18.05;9.20;;;6.30;99.90;;;;;;4965165;28;20050;-61
2022/03/15 06:05:57;;;;;;;16.58;9.70;;;6.30;99.90;;;;;;4966737;28;20743;-61
2022/03/15 06:08:24;;;;;;;17.02;9.68;;;6.30;99.90;;;;;;4966166;28;20977;-62
2022/03/15 06:10:51;;;;;;;17.67;9.63;;;6.30;99.90;;;;;;4967234;28;20041;-62
2022/03/15 06:13:18;;;;;;;19.35;9.63;;;6.30;99.90;;;;;;4965902;28;20042;-62
2022/03/15 06:15:45;;;;;;;;;;;6.30;99.90;;;;;;4967977;28;20125;-62
2022/03/15 06:18:12;;;;;;;13.73;8.80;;;6.30;99.90;;;;;;4968446;28;19925;-62
2022/03/15 06:20:39;;;;;;;14.57;8.77;;;6.30;99.90;;;;;;4966936;28;20264;-62
2022/03/15 06:23:06;;;;;;;17.27;7.70;;;6.30;99.90;;;;;;4965803;28;20112;-62
2022/03/15 06:25:34;;;;;;;;;;;6.40;99.90;;;;;;4966558;28;20539;-62
2022/03/15 06:28:01;;;;;;;;;;;6.40;99.90;;;;;;4967755;28;19926;-62
2022/03/15 06:30:28;;;;;;;14.15;7.55;;;6.40;99.90;;;;;;4966904;28;19967;-62
2022/03/15 06:32:55;;;;;;;13.20;7.78;;;6.40;99.90;;;;;;4965974;28;20957;-62
2022/03/15 06:35:22;;;;;;;14.65;8.38;;;6.40;99.90;;;;;;4964243;28;20072;-57
2022/03/15 06:37:50;;;;;;;16.05;8.15;;;6.40;99.90;;;;;;4966891;28;20068;-58
2022/03/15 06:40:22;;;;;;;12.27;7.35;;;6.40;99.90;;;;;;4967708;28;20038;-58
2022/03/15 06:42:50;;;;;;;12.57;7.80;;;6.50;99.90;;;;;;4964412;28;20053;-58
2022/03/15 06:45:17;;;;;;;11.95;7.70;;;6.50;99.90;;;;;;4965947;28;20577;-58
2022/03/15 06:47:44;;;;;;;21.98;9.70;;;6.50;99.90;;;;;;4964847;28;20050;-58
2022/03/15 06:50:12;;;;;;;13.73;8.98;;;6.50;99.90;;;;;;4965451;28;20777;-58
2022/03/15 06:52:41;;;;;;;12.50;8.43;;;6.40;99.90;;;;;;4964378;28;20044;-57
2022/03/15 06:55:09;;;;;;;16.10;8.40;;;6.40;99.90;;;;;;4966525;28;20057;-57
2022/03/15 06:57:37;;;;;;;11.48;8.00;;;6.40;99.90;;;;;;4965148;28;20793;-58
2022/03/15 07:00:06;;;;;;;11.02;7.55;;;6.40;99.90;;;;;;4966007;28;20049;-57
2022/03/15 07:02:34;;;;;;;10.88;7.78;;;6.30;99.90;;;;;;4964062;28;20490;-58
2022/03/15 07:05:01;;;;;;;14.82;8.63;;;6.30;99.90;;;;;;4964845;28;20049;-57
2022/03/15 07:07:28;;;;;;;14.00;7.88;;;6.30;99.90;;;;;;4965543;28;20601;-57
2022/03/15 07:09:56;;;;;;;11.38;6.97;;;6.30;99.90;;;;;;4965721;28;20054;-58
2022/03/15 07:12:26;;;;;;;11.50;7.28;;;6.30;99.90;;;;;;4963236;28;20974;-55
2022/03/15 07:14:53;;;;;;;8.52;6.30;;;6.30;99.90;;;;;;4964754;28;20567;-57
2022/03/15 07:17:20;;;;;;;9.10;6.57;;;6.40;99.90;;;;;;4966161;28;20128;-57
2022/03/15 07:19:47;;;;;;;;;;;6.40;99.90;;;;;;4964910;28;20038;-56
2022/03/15 07:22:14;;;;;;;10.43;7.03;;;6.50;99.90;;;;;;4947567;28;19921;-57
2022/03/15 07:24:41;;;;;;;10.27;7.13;;;6.50;99.90;;;;;;4964513;28;20234;-57
2022/03/15 07:27:08;;;;;;;;;;;6.50;99.90;;;;;;4962886;28;20092;-56
2022/03/15 07:29:35;;;;;;;14.07;7.25;;;6.60;99.90;;;;;;4965512;28;19968;-57
2022/03/15 07:32:02;;;;;;;10.18;6.88;;;6.60;99.90;;;;;;4965383;28;20038;-59
2022/03/15 07:34:29;;;;;;;17.02;8.70;;;6.60;99.90;;;;;;4963489;28;20034;-57
2022/03/15 07:36:56;;;;;;;8.32;6.50;;;6.60;99.90;;;;;;4962981;28;20040;-56
2022/03/15 07:39:23;;;;;;;;;;;6.70;99.90;;;;;;4964669;28;20042;-58
2022/03/15 07:41:52;;;;;;;10.77;7.10;;;6.70;99.90;;;;;;4963954;28;20118;-56
2022/03/15 07:44:20;;;;;;;12.80;7.85;;;6.70;99.90;;;;;;4947364;28;20239;-56
2022/03/15 07:46:50;;;;;;;10.13;7.28;;;6.70;99.90;;;;;;4964608;28;20046;-53
2022/03/15 07:49:21;;;;;;;13.27;7.10;;;6.80;99.90;;;;;;4963622;28;20645;-54
2022/03/15 07:51:49;;;;;;;15.65;7.90;;;6.80;99.90;;;;;;4963869;28;20567;-54
2022/03/15 07:54:17;;;;;;;12.43;7.93;;;6.90;99.90;;;;;;4961939;28;20038;-54
2022/03/15 07:56:47;;;;;;;11.13;7.72;;;6.90;99.90;;;;;;4960877;28;20115;-53
2022/03/15 07:59:18;;;;;;;12.80;7.75;;;6.90;99.90;;;;;;4961107;28;20140;-53
2022/03/15 08:01:45;;;;;;;12.48;7.75;;;7.00;99.90;;;;;;4964394;28;20050;-52
2022/03/15 08:04:12;;;;;;;12.15;7.75;;;7.00;99.90;;;;;;4962946;28;20052;-53
2022/03/15 08:06:38;;;;;;;9.63;7.38;;;7.00;99.90;;;;;;4964682;28;20037;-53
2022/03/15 08:09:05;;;;;;;;;;;7.00;99.90;;;;;;4963966;28;20218;-53
2022/03/15 08:11:33;;;;;;;14.75;7.85;;;7.00;99.90;;;;;;4944836;28;20530;-54
2022/03/15 08:14:00;;;;;;;18.10;8.10;;;7.00;99.90;;;;;;4961972;28;20042;-54
2022/03/15 08:16:27;;;;;;;;;;;7.00;99.90;;;;;;4962051;28;20045;-56
2022/03/15 08:18:55;;;;;;;13.27;7.97;;;7.10;99.90;;;;;;4963308;28;20032;-56
2022/03/15 08:21:23;;;;;;;10.65;7.70;;;7.10;99.90;;;;;;4962348;28;20567;-56
2022/03/15 08:23:50;;;;;;;12.73;8.05;;;7.10;99.90;;;;;;4962290;28;20757;-55
2022/03/15 08:26:17;;;;;;;11.10;7.90;;;7.10;99.90;;;;;;4963249;28;20065;-55
2022/03/15 08:28:48;;;;;;;14.10;8.85;;;7.10;99.90;;;;;;4964844;28;20630;-55
2022/03/15 08:31:16;;;;;;;10.55;7.32;;;7.10;99.90;;;;;;4962591;28;20180;-55
2022/03/15 08:33:44;;;;;;;14.77;8.73;;;7.10;99.90;;;;;;4960991;28;20210;-55
2022/03/15 08:36:15;;;;;;;14.80;9.43;;;7.00;99.90;;;;;;4960491;28;20306;-55
2022/03/15 08:38:43;;;;;;;14.45;8.93;;;7.10;99.90;;;;;;4961941;28;20037;-56
2022/03/15 08:41:10;;;;;;;11.32;8.43;;;7.00;99.90;;;;;;4961544;28;20105;-56
2022/03/15 08:43:37;;;;;;;15.13;8.90;;;7.00;99.90;;;;;;4960246;28;20050;-46
2022/03/15 08:46:05;;;;;;;14.65;9.15;;;7.00;99.90;;;;;;4957057;28;20042;-47
2022/03/15 08:48:32;;;;;;;13.32;8.20;;;7.00;99.90;;;;;;4969619;28;20764;-47
2022/03/15 08:51:01;;;;;;;12.10;8.13;;;7.10;99.90;;;;;;4948160;28;20720;-46
2022/03/15 08:53:29;;;;;;;11.70;8.23;;;7.10;99.90;;;;;;4946628;28;20285;-56
2022/03/15 08:55:56;;;;;;;14.90;8.55;;;7.20;99.90;;;;;;4945199;28;20042;-56
2022/03/15 08:58:23;;;;;;;17.13;8.90;;;7.20;99.90;;;;;;4961181;28;20048;-56
2022/03/15 09:00:52;;;;;;;10.70;7.63;;;7.20;99.90;;;;;;4960308;28;20044;-56
2022/03/15 09:03:19;;;;;;;11.88;7.68;;;7.30;99.90;;;;;;4962913;28;20258;-55
2022/03/15 09:05:47;;;;;;;10.40;7.43;;;7.30;99.90;;;;;;4962036;28;20834;-55
2022/03/15 09:08:18;;;;;;;11.10;7.53;;;7.40;99.90;;;;;;4961905;28;20207;-56
2022/03/15 09:10:47;;;;;;;17.55;8.93;;;7.60;99.90;;;;;;4961889;28;20054;-55
2022/03/15 09:13:15;;;;;;;11.45;8.10;;;7.60;99.90;;;;;;4961281;28;20048;-55
2022/03/15 09:15:42;;;;;;;15.77;8.50;;;7.60;99.90;;;;;;4963631;28;20060;-56
2022/03/15 09:18:12;;;;;;;12.88;7.72;;;7.60;99.90;;;;;;4960420;28;20619;-56
2022/03/15 09:20:39;;;;;;;12.13;7.45;;;7.50;99.90;;;;;;4960748;28;20559;-55
2022/03/15 09:23:07;;;;;;;15.02;8.00;;;7.50;99.90;;;;;;4962671;28;20041;-56
2022/03/15 09:25:36;;;;;;;14.45;7.30;;;7.50;99.90;;;;;;4960433;28;20042;-56
2022/03/15 09:28:04;;;;;;;11.35;8.40;;;7.50;99.90;;;;;;4964195;28;20480;-56
2022/03/15 09:30:32;;;;;;;11.95;8.30;;;7.50;99.90;;;;;;4963312;28;20526;-56
2022/03/15 09:33:00;;;;;;;13.80;8.32;;;7.50;99.90;;;;;;4960842;28;20665;-57
2022/03/15 09:35:27;;;;;;;16.92;8.55;;;7.50;99.90;;;;;;4960068;28;20875;-55
2022/03/15 09:37:54;;;;;;;;;;;7.50;99.90;;;;;;4960642;28;20845;-55
2022/03/15 09:40:25;;;;;;;17.70;10.20;;;7.50;99.90;;;;;;4949914;28;19925;-54
2022/03/15 09:42:59;;;;;;;13.38;8.55;;;7.50;99.90;;;;;;4949476;28;20048;-55
2022/03/15 09:45:31;;;;;;;11.50;7.65;;;7.50;99.90;;;;;;4961792;28;20424;-55
2022/03/15 09:48:00;;;;;;;12.45;7.85;;;7.60;99.90;;;;;;4960079;28;20042;-55
2022/03/15 09:50:27;;;;;;;14.60;7.95;;;7.60;99.90;;;;;;4942863;28;20136;-55
2022/03/15 09:52:55;;;;;;;;;;;7.60;99.90;;;;;;4952294;28;20042;-55
2022/03/15 09:55:22;;;;;;;;;;;7.70;99.90;;;;;;4961906;28;20730;-54
2022/03/15 09:57:50;;;;;;;14.07;8.20;;;7.70;99.90;;;;;;4961633;28;20217;-55
2022/03/15 10:00:17;;;;;;;14.15;7.63;;;7.70;99.90;;;;;;4961456;28;20054;-51
2022/03/15 10:02:44;;;;;;;13.98;7.28;;;7.80;99.90;;;;;;4960484;28;20078;-54
2022/03/15 10:05:12;;;;;;;10.98;7.63;;;7.90;99.90;;;;;;4959472;28;20042;-60
2022/03/15 10:07:40;;;;;;;15.18;8.27;;;7.90;99.90;;;;;;4962352;28;20802;-57
2022/03/15 10:10:10;;;;;;;11.25;7.90;;;8.00;99.90;;;;;;4960447;28;20117;-56
2022/03/15 10:12:38;;;;;;;12.18;7.75;;;8.00;99.90;;;;;;4961894;28;20048;-57
2022/03/15 10:15:16;;;;;;;14.05;7.93;;;8.00;99.90;;;;;;4961281;28;20050;-57
2022/03/15 10:17:45;;;;;;;11.45;7.70;;;8.00;99.90;;;;;;4960928;28;20555;-56
2022/03/15 10:20:18;;;;;;;13.65;6.80;;;8.10;99.90;;;;;;4961575;28;20424;-57
2022/03/15 10:22:59;;;;;;;14.07;7.38;;;8.10;99.90;;;;;;4961325;28;20080;-58
2022/03/15 10:25:34;;;;;;;11.65;7.25;;;8.20;99.90;;;;;;4962479;28;20207;-57
2022/03/15 10:28:04;;;;;;;12.45;6.82;;;8.20;99.90;;;;;;4948300;28;20618;-57
2022/03/15 10:30:32;;;;;;;10.65;5.95;;;8.30;99.90;;;;;;4966399;28;20070;-53
2022/03/15 10:32:59;;;;;;;8.85;5.63;;;8.30;99.90;;;;;;4960353;28;20579;-54
2022/03/15 10:35:29;;;;;;;9.05;5.85;;;8.40;99.90;;;;;;4966207;28;20038;-57
2022/03/15 10:37:57;;;;;;;10.00;6.07;;;8.40;99.90;;;;;;4966369;28;20042;-56
2022/03/15 10:40:44;;;;;;;9.00;6.18;;;8.50;99.90;;;;;;4966124;28;20219;-56
2022/03/15 10:43:15;;;;;;;10.52;6.90;;;8.50;99.90;;;;;;4964606;28;20041;-53
2022/03/15 10:45:47;;;;;;;14.00;8.45;;;8.60;99.90;;;;;;4964296;28;20038;-56
2022/03/15 10:48:21;;;;;;;13.43;7.60;;;8.60;99.90;;;;;;4964623;28;20057;-54
2022/03/15 10:51:02;;;;;;;9.32;6.22;;;8.60;99.90;;;;;;4946201;28;20837;-57
2022/03/15 10:53:48;;;;;;;9.05;6.63;;;8.60;99.90;;;;;;4963321;28;20045;-53
2022/03/15 10:56:19;;;;;;;9.40;6.53;;;8.60;99.90;;;;;;4963161;28;20052;-54
2022/03/15 10:58:52;;;;;;;14.55;6.78;;;8.70;99.90;;;;;;4965709;28;20038;-54
2022/03/15 11:01:22;;;;;;;13.43;6.22;;;8.70;99.90;;;;;;4964690;28;20042;-55
2022/03/15 11:04:02;;;;;;;20.35;6.85;;;8.70;99.90;;;;;;4962892;28;20231;-55
2022/03/15 11:06:38;;;;;;;11.27;6.32;;;8.80;99.90;;;;;;4964618;28;20219;-56
2022/03/15 11:09:32;;;;;;;14.27;6.30;;;8.80;99.90;;;;;;4961437;28;20439;-57
2022/03/15 11:12:08;;;;;;;9.90;5.57;;;8.90;99.90;;;;;;4961452;28;20045;-57
2022/03/15 11:14:47;;;;;;;9.35;5.03;;;9.00;99.90;;;;;;4963175;28;20052;-56
2022/03/15 11:17:23;;;;;;;11.35;6.45;;;9.10;99.90;;;;;;4964325;28;20811;-57
2022/03/15 11:19:56;;;;;;;10.52;7.03;;;9.10;99.90;;;;;;4962048;28;20071;-56
2022/03/15 11:22:26;;;;;;;10.07;6.57;;;9.20;99.90;;;;;;4963900;28;20042;-56
2022/03/15 11:25:18;;;;;;;9.95;5.30;;;9.30;99.90;;;;;;4965305;28;20876;-56
2022/03/15 11:27:47;;;;;;;14.82;5.78;;;9.40;99.90;;;;;;4965682;28;20054;-56
2022/03/15 11:30:18;;;;;;;15.30;5.55;;;9.50;99.90;;;;;;4964820;28;20848;-56
2022/03/15 11:32:45;;;;;;;8.98;3.83;;;9.60;99.90;;;;;;4960291;28;20053;-55
2022/03/15 11:35:22;;;;;;;12.23;3.97;;;9.70;99.90;;;;;;4960600;28;20839;-56
2022/03/15 11:37:52;;;;;;;11.57;4.53;;;9.90;99.90;;;;;;4964922;28;20046;-55
2022/03/15 11:40:19;;;;;;;11.57;4.43;;;9.90;99.90;;;;;;4965614;28;20851;-57
2022/03/15 11:42:57;;;;;;;10.90;4.43;;;10.10;99.90;;;;;;4964830;28;20565;-55
2022/03/15 11:45:27;;;;;;;17.17;3.60;;;10.20;99.90;;;;;;4963775;28;20123;-56
2022/03/15 11:48:10;;;;;;;24.45;3.40;;;10.40;99.90;;;;;;4965673;28;20042;-56
2022/03/15 11:51:04;;;;;;;16.73;3.53;;;10.50;99.90;;;;;;4964783;28;20042;-55
2022/03/15 11:54:01;;;;;;;17.77;3.15;;;10.70;99.90;;;;;;4961968;28;20330;-56
2022/03/15 11:56:48;;;;;;;14.25;4.03;;;10.90;99.90;;;;;;4952808;28;20058;-54
2022/03/15 11:59:15;;;;;;;21.30;9.30;;;11.10;99.90;;;;;;4950451;28;20215;-52
2022/03/15 12:01:51;;;;;;;14.95;8.55;;;11.20;99.90;;;;;;4964951;28;20149;-55
2022/03/15 12:04:23;;;;;;;16.33;8.10;;;11.20;99.90;;;;;;4960590;28;20559;-57
2022/03/15 12:06:57;;;;;;;12.52;8.23;;;11.20;99.90;;;;;;4964401;28;20590;-56
2022/03/15 12:09:26;;;;;;;14.38;7.88;;;11.10;99.90;;;;;;4963919;28;20636;-56
2022/03/15 12:12:05;;;;;;;13.55;7.97;;;11.10;99.90;;;;;;4961138;28;20042;-55
2022/03/15 12:14:40;;;;;;;12.05;7.18;;;11.00;99.90;;;;;;4963682;28;20184;-56
2022/03/15 12:17:10;;;;;;;14.93;8.27;;;11.00;99.90;;;;;;4963794;28;20376;-56
2022/03/15 12:19:47;;;;;;;13.52;8.82;;;10.90;99.90;;;;;;4963177;28;20071;-56
2022/03/15 12:22:25;;;;;;;13.73;7.47;;;10.90;99.90;;;;;;4964016;28;20046;-56
2022/03/15 12:25:06;;;;;;;13.65;8.07;;;10.90;99.90;;;;;;4960521;28;20646;-55
2022/03/15 12:28:01;;;;;;;11.60;7.32;;;10.80;99.90;;;;;;4963745;28;20041;-56
2022/03/15 12:30:36;;;;;;;10.75;7.68;;;10.80;99.90;;;;;;4963710;28;20116;-56
2022/03/15 12:33:03;;;;;;;11.65;7.90;;;10.80;99.90;;;;;;4962792;28;20034;-56
2022/03/15 12:35:31;;;;;;;;;;;10.80;99.90;;;;;;4964159;28;20048;-55
2022/03/15 12:38:05;;;;;;;10.50;7.25;;;10.80;99.90;;;;;;4964042;28;19928;-56
2022/03/15 12:40:33;;;;;;;13.30;8.25;;;10.80;99.90;;;;;;4962986;28;20041;-55
2022/03/15 12:43:04;;;;;;;12.48;8.27;;;10.90;99.90;;;;;;4964298;28;20042;-55
2022/03/15 12:45:32;;;;;;;17.10;8.52;;;10.90;99.90;;;;;;4963331;28;20061;-57
2022/03/15 12:48:07;;;;;;;13.35;8.00;;;10.90;99.90;;;;;;4963373;28;20153;-55
2022/03/15 12:50:56;;;;;;;16.02;8.35;;;10.90;99.90;;;;;;4942084;28;20049;-54
2022/03/15 12:53:37;;;;;;;14.90;7.70;;;11.00;99.90;;;;;;4958185;28;20461;-54
2022/03/15 12:56:04;;;;;;;14.00;8.10;;;11.10;99.90;;;;;;4962072;28;20123;-55
2022/03/15 12:58:31;;;;;;;11.75;8.45;;;11.10;99.90;;;;;;4961795;28;20968;-54
2022/03/15 13:00:58;;;;;;;19.95;8.20;;;11.20;99.90;;;;;;4963796;28;20049;-53
2022/03/15 13:03:26;;;;;;;13.02;7.88;;;11.30;99.90;;;;;;4960637;28;20888;-54
2022/03/15 13:05:55;;;;;;;16.15;9.80;;;11.40;99.90;;;;;;4963018;28;20832;-54